sensor_id;sensor_type;location;lat;lon;timestamp;P1;durP1;ratioP1;P2;durP2;ratioP2
48873;SDS011;66155;46.204;5.220;2023-05-07T00:04:38;4.25;;;3.55;;
48873;SDS011;66155;46.204;5.220;2023-05-07T00:09:39;4.10;;;3.13;;
48873;SDS011;66155;46.204;5.220;2023-05-07T00:14:39;6.25;;;3.47;;
48873;SDS011;66155;46.204;5.220;2023-05-07T00:19:40;5.03;;;3.22;;
48873;SDS011;66155;46.204;5.220;2023-05-07T00:24:41;5.68;;;3.65;;
48873;SDS011;66155;46.204;5.220;2023-05-07T00:29:41;5.25;;;3.40;;
48873;SDS011;66155;46.204;5.220;2023-05-07T00:34:42;6.13;;;3.10;;
48873;SDS011;66155;46.204;5.220;2023-05-07T00:39:43;5.43;;;3.70;;
48873;SDS011;66155;46.204;5.220;2023-05-07T00:44:44;4.03;;;2.92;;
48873;SDS011;66155;46.204;5.220;2023-05-07T00:49:44;4.57;;;3.40;;
48873;SDS011;66155;46.204;5.220;2023-05-07T00:54:45;4.20;;;3.05;;
48873;SDS011;66155;46.204;5.220;2023-05-07T00:59:46;4.35;;;3.00;;
48873;SDS011;66155;46.204;5.220;2023-05-07T01:04:46;3.20;;;3.00;;
48873;SDS011;66155;46.204;5.220;2023-05-07T01:09:47;6.18;;;3.42;;
48873;SDS011;66155;46.204;5.220;2023-05-07T01:14:47;3.45;;;2.97;;
48873;SDS011;66155;46.204;5.220;2023-05-07T01:19:49;4.97;;;3.45;;
48873;SDS011;66155;46.204;5.220;2023-05-07T01:24:50;5.30;;;3.92;;
48873;SDS011;66155;46.204;5.220;2023-05-07T01:29:51;5.50;;;3.60;;
48873;SDS011;66155;46.204;5.220;2023-05-07T01:34:51;4.90;;;4.15;;
48873;SDS011;66155;46.204;5.220;2023-05-07T01:39:54;4.75;;;3.85;;
48873;SDS011;66155;46.204;5.220;2023-05-07T01:44:54;4.72;;;3.15;;
48873;SDS011;66155;46.204;5.220;2023-05-07T01:49:55;4.90;;;3.67;;
48873;SDS011;66155;46.204;5.220;2023-05-07T01:54:56;4.15;;;3.20;;
48873;SDS011;66155;46.204;5.220;2023-05-07T01:59:56;3.05;;;2.50;;
48873;SDS011;66155;46.204;5.220;2023-05-07T02:04:57;4.45;;;2.75;;
48873;SDS011;66155;46.204;5.220;2023-05-07T02:09:57;3.38;;;2.90;;
48873;SDS011;66155;46.204;5.220;2023-05-07T02:14:58;4.57;;;2.50;;
48873;SDS011;66155;46.204;5.220;2023-05-07T02:19:58;3.53;;;2.42;;
48873;SDS011;66155;46.204;5.220;2023-05-07T02:24:59;3.45;;;2.30;;
48873;SDS011;66155;46.204;5.220;2023-05-07T02:29:59;2.38;;;2.17;;
48873;SDS011;66155;46.204;5.220;2023-05-07T02:35:00;6.18;;;3.28;;
48873;SDS011;66155;46.204;5.220;2023-05-07T02:40:00;6.32;;;3.08;;
48873;SDS011;66155;46.204;5.220;2023-05-07T02:45:01;3.15;;;2.85;;
48873;SDS011;66155;46.204;5.220;2023-05-07T02:50:02;3.13;;;2.70;;
48873;SDS011;66155;46.204;5.220;2023-05-07T02:55:02;3.58;;;2.88;;
48873;SDS011;66155;46.204;5.220;2023-05-07T03:00:10;4.57;;;3.20;;
48873;SDS011;66155;46.204;5.220;2023-05-07T03:05:20;3.85;;;2.72;;
48873;SDS011;66155;46.204;5.220;2023-05-07T03:10:20;6.15;;;3.00;;
48873;SDS011;66155;46.204;5.220;2023-05-07T03:15:21;2.60;;;2.40;;
48873;SDS011;66155;46.204;5.220;2023-05-07T03:20:22;3.63;;;2.95;;
48873;SDS011;66155;46.204;5.220;2023-05-07T03:25:22;4.43;;;2.92;;
48873;SDS011;66155;46.204;5.220;2023-05-07T03:30:23;3.15;;;2.60;;
48873;SDS011;66155;46.204;5.220;2023-05-07T03:35:23;4.07;;;2.50;;
48873;SDS011;66155;46.204;5.220;2023-05-07T03:40:24;4.63;;;2.20;;
48873;SDS011;66155;46.204;5.220;2023-05-07T03:45:24;4.80;;;3.38;;
48873;SDS011;66155;46.204;5.220;2023-05-07T03:50:25;6.97;;;3.30;;
48873;SDS011;66155;46.204;5.220;2023-05-07T03:55:26;4.30;;;2.72;;
48873;SDS011;66155;46.204;5.220;2023-05-07T04:00:27;3.50;;;3.00;;
48873;SDS011;66155;46.204;5.220;2023-05-07T04:05:27;4.07;;;2.40;;
48873;SDS011;66155;46.204;5.220;2023-05-07T04:10:29;3.03;;;2.65;;
48873;SDS011;66155;46.204;5.220;2023-05-07T04:15:30;3.65;;;3.30;;
48873;SDS011;66155;46.204;5.220;2023-05-07T04:20:31;3.97;;;2.92;;
48873;SDS011;66155;46.204;5.220;2023-05-07T04:25:34;3.22;;;2.92;;
48873;SDS011;66155;46.204;5.220;2023-05-07T04:30:35;4.95;;;3.20;;
48873;SDS011;66155;46.204;5.220;2023-05-07T04:35:35;3.03;;;2.65;;
48873;SDS011;66155;46.204;5.220;2023-05-07T04:40:36;4.43;;;2.63;;
48873;SDS011;66155;46.204;5.220;2023-05-07T04:45:37;6.18;;;2.90;;
48873;SDS011;66155;46.204;5.220;2023-05-07T04:50:37;4.30;;;3.22;;
48873;SDS011;66155;46.204;5.220;2023-05-07T04:55:38;5.90;;;3.35;;
48873;SDS011;66155;46.204;5.220;2023-05-07T05:00:39;4.75;;;3.00;;
48873;SDS011;66155;46.204;5.220;2023-05-07T05:05:39;3.03;;;2.72;;
48873;SDS011;66155;46.204;5.220;2023-05-07T05:10:40;3.92;;;3.38;;
48873;SDS011;66155;46.204;5.220;2023-05-07T05:15:41;3.58;;;3.13;;
48873;SDS011;66155;46.204;5.220;2023-05-07T05:20:42;5.15;;;3.75;;
48873;SDS011;66155;46.204;5.220;2023-05-07T05:25:42;3.40;;;3.03;;
48873;SDS011;66155;46.204;5.220;2023-05-07T05:30:43;3.10;;;2.80;;
48873;SDS011;66155;46.204;5.220;2023-05-07T05:35:43;6.80;;;3.38;;
48873;SDS011;66155;46.204;5.220;2023-05-07T05:40:44;3.20;;;2.90;;
48873;SDS011;66155;46.204;5.220;2023-05-07T05:45:44;4.53;;;4.13;;
48873;SDS011;66155;46.204;5.220;2023-05-07T05:50:45;7.07;;;3.47;;
48873;SDS011;66155;46.204;5.220;2023-05-07T05:55:45;4.95;;;2.70;;
48873;SDS011;66155;46.204;5.220;2023-05-07T06:00:46;4.18;;;3.72;;
48873;SDS011;66155;46.204;5.220;2023-05-07T06:05:48;3.55;;;2.90;;
48873;SDS011;66155;46.204;5.220;2023-05-07T06:10:48;5.90;;;3.50;;
48873;SDS011;66155;46.204;5.220;2023-05-07T06:15:49;4.43;;;3.33;;
48873;SDS011;66155;46.204;5.220;2023-05-07T06:20:51;6.03;;;3.00;;
48873;SDS011;66155;46.204;5.220;2023-05-07T06:25:52;3.42;;;3.08;;
48873;SDS011;66155;46.204;5.220;2023-05-07T06:30:52;4.15;;;3.20;;
48873;SDS011;66155;46.204;5.220;2023-05-07T06:35:53;4.63;;;3.80;;
48873;SDS011;66155;46.204;5.220;2023-05-07T06:40:53;4.25;;;3.40;;
48873;SDS011;66155;46.204;5.220;2023-05-07T06:45:55;4.35;;;3.72;;
48873;SDS011;66155;46.204;5.220;2023-05-07T06:50:57;5.03;;;3.00;;
48873;SDS011;66155;46.204;5.220;2023-05-07T06:55:57;3.97;;;2.97;;
48873;SDS011;66155;46.204;5.220;2023-05-07T07:00:58;4.65;;;4.05;;
48873;SDS011;66155;46.204;5.220;2023-05-07T07:05:58;3.90;;;3.50;;
48873;SDS011;66155;46.204;5.220;2023-05-07T07:10:59;82.22;;;8.25;;
48873;SDS011;66155;46.204;5.220;2023-05-07T07:16:00;62.05;;;8.10;;
48873;SDS011;66155;46.204;5.220;2023-05-07T07:21:00;3.70;;;3.00;;
48873;SDS011;66155;46.204;5.220;2023-05-07T07:26:01;62.17;;;7.20;;
48873;SDS011;66155;46.204;5.220;2023-05-07T07:31:01;4.88;;;2.72;;
48873;SDS011;66155;46.204;5.220;2023-05-07T07:36:02;11.98;;;3.17;;
48873;SDS011;66155;46.204;5.220;2023-05-07T07:41:02;9.18;;;4.00;;
48873;SDS011;66155;46.204;5.220;2023-05-07T07:46:03;4.05;;;2.67;;
48873;SDS011;66155;46.204;5.220;2023-05-07T07:51:04;2.42;;;2.17;;
48873;SDS011;66155;46.204;5.220;2023-05-07T07:56:04;3.42;;;2.30;;
48873;SDS011;66155;46.204;5.220;2023-05-07T08:01:07;2.42;;;2.20;;
48873;SDS011;66155;46.204;5.220;2023-05-07T08:06:08;6.35;;;2.92;;
48873;SDS011;66155;46.204;5.220;2023-05-07T08:11:09;4.30;;;3.13;;
48873;SDS011;66155;46.204;5.220;2023-05-07T08:16:09;4.18;;;2.90;;
48873;SDS011;66155;46.204;5.220;2023-05-07T08:21:10;2.50;;;2.30;;
48873;SDS011;66155;46.204;5.220;2023-05-07T08:26:11;3.47;;;2.40;;
48873;SDS011;66155;46.204;5.220;2023-05-07T08:31:11;3.38;;;2.40;;
48873;SDS011;66155;46.204;5.220;2023-05-07T08:36:12;3.60;;;2.40;;
48873;SDS011;66155;46.204;5.220;2023-05-07T08:41:12;2.53;;;2.33;;
48873;SDS011;66155;46.204;5.220;2023-05-07T08:46:13;2.88;;;2.55;;
48873;SDS011;66155;46.204;5.220;2023-05-07T08:51:18;4.20;;;3.13;;
48873;SDS011;66155;46.204;5.220;2023-05-07T08:56:20;2.50;;;2.30;;
48873;SDS011;66155;46.204;5.220;2023-05-07T09:01:21;2.60;;;2.40;;
48873;SDS011;66155;46.204;5.220;2023-05-07T09:06:21;3.40;;;3.17;;
48873;SDS011;66155;46.204;5.220;2023-05-07T09:11:22;2.80;;;2.40;;
48873;SDS011;66155;46.204;5.220;2023-05-07T09:16:23;2.80;;;2.60;;
48873;SDS011;66155;46.204;5.220;2023-05-07T09:21:32;4.47;;;2.75;;
48873;SDS011;66155;46.204;5.220;2023-05-07T09:26:33;4.13;;;2.67;;
48873;SDS011;66155;46.204;5.220;2023-05-07T09:31:37;3.00;;;2.53;;
48873;SDS011;66155;46.204;5.220;2023-05-07T09:36:38;3.05;;;2.53;;
48873;SDS011;66155;46.204;5.220;2023-05-07T09:41:45;2.70;;;2.50;;
48873;SDS011;66155;46.204;5.220;2023-05-07T09:46:47;2.72;;;2.50;;
48873;SDS011;66155;46.204;5.220;2023-05-07T09:51:53;3.15;;;2.85;;
48873;SDS011;66155;46.204;5.220;2023-05-07T09:56:55;2.65;;;2.45;;
48873;SDS011;66155;46.204;5.220;2023-05-07T10:01:59;4.78;;;2.50;;
48873;SDS011;66155;46.204;5.220;2023-05-07T10:07:01;2.33;;;2.13;;
48873;SDS011;66155;46.204;5.220;2023-05-07T10:12:04;3.80;;;3.53;;
48873;SDS011;66155;46.204;5.220;2023-05-07T10:17:05;3.95;;;3.65;;
48873;SDS011;66155;46.204;5.220;2023-05-07T10:22:06;2.78;;;2.55;;
48873;SDS011;66155;46.204;5.220;2023-05-07T10:27:09;13.77;;;6.53;;
48873;SDS011;66155;46.204;5.220;2023-05-07T10:37:19;6.22;;;2.67;;
48873;SDS011;66155;46.204;5.220;2023-05-07T10:42:20;2.78;;;2.33;;
48873;SDS011;66155;46.204;5.220;2023-05-07T10:47:20;2.63;;;2.42;;
48873;SDS011;66155;46.204;5.220;2023-05-07T10:52:22;2.45;;;2.25;;
48873;SDS011;66155;46.204;5.220;2023-05-07T10:57:36;2.72;;;2.45;;
48873;SDS011;66155;46.204;5.220;2023-05-07T11:08:00;3.58;;;2.15;;
48873;SDS011;66155;46.204;5.220;2023-05-07T11:13:01;2.75;;;1.83;;
48873;SDS011;66155;46.204;5.220;2023-05-07T11:18:01;4.20;;;1.77;;
48873;SDS011;66155;46.204;5.220;2023-05-07T11:23:03;2.67;;;1.70;;
48873;SDS011;66155;46.204;5.220;2023-05-07T11:28:05;2.60;;;1.90;;
48873;SDS011;66155;46.204;5.220;2023-05-07T11:33:07;2.67;;;1.80;;
48873;SDS011;66155;46.204;5.220;2023-05-07T11:38:08;1.95;;;1.48;;
48873;SDS011;66155;46.204;5.220;2023-05-07T11:43:11;2.28;;;1.58;;
48873;SDS011;66155;46.204;5.220;2023-05-07T11:48:12;2.15;;;1.67;;
48873;SDS011;66155;46.204;5.220;2023-05-07T11:53:14;5.80;;;1.70;;
48873;SDS011;66155;46.204;5.220;2023-05-07T11:58:20;5.17;;;1.90;;
48873;SDS011;66155;46.204;5.220;2023-05-07T12:03:21;2.75;;;1.60;;
48873;SDS011;66155;46.204;5.220;2023-05-07T12:08:21;3.00;;;1.83;;
48873;SDS011;66155;46.204;5.220;2023-05-07T12:13:23;3.07;;;1.83;;
48873;SDS011;66155;46.204;5.220;2023-05-07T12:18:24;2.67;;;1.40;;
48873;SDS011;66155;46.204;5.220;2023-05-07T12:23:25;1.52;;;1.40;;
48873;SDS011;66155;46.204;5.220;2023-05-07T12:28:26;5.60;;;1.77;;
48873;SDS011;66155;46.204;5.220;2023-05-07T12:33:27;1.95;;;1.60;;
48873;SDS011;66155;46.204;5.220;2023-05-07T12:38:32;4.03;;;1.80;;
48873;SDS011;66155;46.204;5.220;2023-05-07T12:43:38;2.00;;;1.80;;
48873;SDS011;66155;46.204;5.220;2023-05-07T12:48:43;2.72;;;1.83;;
48873;SDS011;66155;46.204;5.220;2023-05-07T12:58:45;1.50;;;1.40;;
48873;SDS011;66155;46.204;5.220;2023-05-07T13:03:48;1.60;;;1.50;;
48873;SDS011;66155;46.204;5.220;2023-05-07T13:08:50;1.38;;;1.27;;
48873;SDS011;66155;46.204;5.220;2023-05-07T13:13:50;1.88;;;1.77;;
48873;SDS011;66155;46.204;5.220;2023-05-07T13:18:51;2.30;;;1.42;;
48873;SDS011;66155;46.204;5.220;2023-05-07T13:23:51;2.63;;;1.57;;
48873;SDS011;66155;46.204;5.220;2023-05-07T13:28:52;1.57;;;1.47;;
48873;SDS011;66155;46.204;5.220;2023-05-07T13:33:56;2.13;;;1.67;;
48873;SDS011;66155;46.204;5.220;2023-05-07T13:38:56;1.70;;;1.60;;
48873;SDS011;66155;46.204;5.220;2023-05-07T13:43:59;1.75;;;1.65;;
48873;SDS011;66155;46.204;5.220;2023-05-07T13:49:00;1.35;;;1.20;;
48873;SDS011;66155;46.204;5.220;2023-05-07T13:54:00;1.60;;;1.50;;
48873;SDS011;66155;46.204;5.220;2023-05-07T13:59:01;1.65;;;1.55;;
48873;SDS011;66155;46.204;5.220;2023-05-07T14:04:02;1.35;;;1.25;;
48873;SDS011;66155;46.204;5.220;2023-05-07T14:09:02;1.70;;;1.60;;
48873;SDS011;66155;46.204;5.220;2023-05-07T14:14:03;1.50;;;1.40;;
48873;SDS011;66155;46.204;5.220;2023-05-07T14:19:03;3.55;;;1.50;;
48873;SDS011;66155;46.204;5.220;2023-05-07T14:24:05;1.60;;;1.50;;
48873;SDS011;66155;46.204;5.220;2023-05-07T14:29:07;1.83;;;1.65;;
48873;SDS011;66155;46.204;5.220;2023-05-07T14:34:07;1.98;;;1.88;;
48873;SDS011;66155;46.204;5.220;2023-05-07T14:39:07;1.83;;;1.73;;
48873;SDS011;66155;46.204;5.220;2023-05-07T14:44:08;1.73;;;1.63;;
48873;SDS011;66155;46.204;5.220;2023-05-07T14:49:08;1.63;;;1.53;;
48873;SDS011;66155;46.204;5.220;2023-05-07T14:54:16;1.48;;;1.40;;
48873;SDS011;66155;46.204;5.220;2023-05-07T14:59:17;3.70;;;1.70;;
48873;SDS011;66155;46.204;5.220;2023-05-07T15:04:20;1.70;;;1.60;;
48873;SDS011;66155;46.204;5.220;2023-05-07T15:09:21;1.90;;;1.77;;
48873;SDS011;66155;46.204;5.220;2023-05-07T15:14:21;1.80;;;1.70;;
48873;SDS011;66155;46.204;5.220;2023-05-07T15:19:22;2.57;;;2.37;;
48873;SDS011;66155;46.204;5.220;2023-05-07T15:24:24;3.55;;;2.58;;
48873;SDS011;66155;46.204;5.220;2023-05-07T15:29:25;1.90;;;1.80;;
48873;SDS011;66155;46.204;5.220;2023-05-07T15:34:25;2.47;;;1.83;;
48873;SDS011;66155;46.204;5.220;2023-05-07T15:39:26;2.80;;;2.70;;
48873;SDS011;66155;46.204;5.220;2023-05-07T15:44:26;2.25;;;2.08;;
48873;SDS011;66155;46.204;5.220;2023-05-07T15:49:28;2.75;;;2.55;;
48873;SDS011;66155;46.204;5.220;2023-05-07T15:54:29;2.25;;;1.88;;
48873;SDS011;66155;46.204;5.220;2023-05-07T15:59:29;1.80;;;1.70;;
48873;SDS011;66155;46.204;5.220;2023-05-07T16:04:30;2.10;;;2.00;;
48873;SDS011;66155;46.204;5.220;2023-05-07T16:09:30;3.43;;;2.37;;
48873;SDS011;66155;46.204;5.220;2023-05-07T16:14:31;2.10;;;2.00;;
48873;SDS011;66155;46.204;5.220;2023-05-07T16:19:32;2.40;;;2.30;;
48873;SDS011;66155;46.204;5.220;2023-05-07T16:24:32;2.40;;;2.27;;
48873;SDS011;66155;46.204;5.220;2023-05-07T16:29:32;1.87;;;1.77;;
48873;SDS011;66155;46.204;5.220;2023-05-07T16:34:33;1.90;;;1.80;;
48873;SDS011;66155;46.204;5.220;2023-05-07T16:39:33;2.10;;;2.00;;
48873;SDS011;66155;46.204;5.220;2023-05-07T16:44:34;1.90;;;1.80;;
48873;SDS011;66155;46.204;5.220;2023-05-07T16:49:34;2.07;;;1.97;;
48873;SDS011;66155;46.204;5.220;2023-05-07T16:54:35;1.85;;;1.70;;
48873;SDS011;66155;46.204;5.220;2023-05-07T16:59:38;2.08;;;1.98;;
48873;SDS011;66155;46.204;5.220;2023-05-07T17:04:38;2.20;;;2.10;;
48873;SDS011;66155;46.204;5.220;2023-05-07T17:09:39;2.00;;;1.90;;
48873;SDS011;66155;46.204;5.220;2023-05-07T17:14:39;2.50;;;2.30;;
48873;SDS011;66155;46.204;5.220;2023-05-07T17:19:40;2.67;;;2.40;;
48873;SDS011;66155;46.204;5.220;2023-05-07T17:24:40;2.70;;;2.50;;
48873;SDS011;66155;46.204;5.220;2023-05-07T17:29:41;2.70;;;2.50;;
48873;SDS011;66155;46.204;5.220;2023-05-07T17:34:41;2.58;;;2.42;;
48873;SDS011;66155;46.204;5.220;2023-05-07T17:39:41;5.10;;;3.00;;
48873;SDS011;66155;46.204;5.220;2023-05-07T17:44:42;3.83;;;2.57;;
48873;SDS011;66155;46.204;5.220;2023-05-07T17:49:42;3.30;;;2.20;;
48873;SDS011;66155;46.204;5.220;2023-05-07T17:54:43;2.42;;;2.22;;
48873;SDS011;66155;46.204;5.220;2023-05-07T17:59:44;2.23;;;2.00;;
48873;SDS011;66155;46.204;5.220;2023-05-07T18:04:44;3.05;;;2.33;;
48873;SDS011;66155;46.204;5.220;2023-05-07T18:09:45;23.70;;;10.80;;
48873;SDS011;66155;46.204;5.220;2023-05-07T18:14:45;17.33;;;7.93;;
48873;SDS011;66155;46.204;5.220;2023-05-07T18:19:46;6.18;;;3.72;;
48873;SDS011;66155;46.204;5.220;2023-05-07T18:24:47;5.87;;;3.03;;
48873;SDS011;66155;46.204;5.220;2023-05-07T18:29:47;4.63;;;2.53;;
48873;SDS011;66155;46.204;5.220;2023-05-07T18:34:48;4.20;;;2.40;;
48873;SDS011;66155;46.204;5.220;2023-05-07T18:39:48;2.88;;;2.45;;
48873;SDS011;66155;46.204;5.220;2023-05-07T18:44:49;2.20;;;1.63;;
48873;SDS011;66155;46.204;5.220;2023-05-07T18:49:49;1.80;;;1.70;;
48873;SDS011;66155;46.204;5.220;2023-05-07T18:54:50;2.13;;;1.80;;
48873;SDS011;66155;46.204;5.220;2023-05-07T18:59:56;2.53;;;2.33;;
48873;SDS011;66155;46.204;5.220;2023-05-07T19:04:57;2.13;;;1.92;;
48873;SDS011;66155;46.204;5.220;2023-05-07T19:09:57;1.73;;;1.60;;
48873;SDS011;66155;46.204;5.220;2023-05-07T19:14:58;4.53;;;2.55;;
48873;SDS011;66155;46.204;5.220;2023-05-07T19:19:58;2.50;;;1.90;;
48873;SDS011;66155;46.204;5.220;2023-05-07T19:24:59;1.60;;;1.50;;
48873;SDS011;66155;46.204;5.220;2023-05-07T19:29:59;3.28;;;2.13;;
48873;SDS011;66155;46.204;5.220;2023-05-07T19:34:59;1.55;;;1.45;;
48873;SDS011;66155;46.204;5.220;2023-05-07T19:40:00;3.20;;;2.00;;
48873;SDS011;66155;46.204;5.220;2023-05-07T19:45:04;5.57;;;2.30;;
48873;SDS011;66155;46.204;5.220;2023-05-07T19:50:05;4.25;;;2.00;;
48873;SDS011;66155;46.204;5.220;2023-05-07T19:55:06;1.88;;;1.73;;
48873;SDS011;66155;46.204;5.220;2023-05-07T20:00:07;2.08;;;1.80;;
48873;SDS011;66155;46.204;5.220;2023-05-07T20:05:08;2.50;;;2.30;;
48873;SDS011;66155;46.204;5.220;2023-05-07T20:10:10;1.88;;;1.60;;
48873;SDS011;66155;46.204;5.220;2023-05-07T20:15:10;2.05;;;1.85;;
48873;SDS011;66155;46.204;5.220;2023-05-07T20:20:11;1.50;;;1.40;;
48873;SDS011;66155;46.204;5.220;2023-05-07T20:25:12;2.10;;;1.80;;
48873;SDS011;66155;46.204;5.220;2023-05-07T20:30:14;1.73;;;1.30;;
48873;SDS011;66155;46.204;5.220;2023-05-07T20:35:14;1.75;;;1.60;;
48873;SDS011;66155;46.204;5.220;2023-05-07T20:40:15;3.05;;;1.60;;
48873;SDS011;66155;46.204;5.220;2023-05-07T20:45:15;2.42;;;1.73;;
48873;SDS011;66155;46.204;5.220;2023-05-07T20:50:16;3.70;;;1.80;;
48873;SDS011;66155;46.204;5.220;2023-05-07T20:55:16;3.93;;;2.03;;
48873;SDS011;66155;46.204;5.220;2023-05-07T21:00:17;6.32;;;3.15;;
48873;SDS011;66155;46.204;5.220;2023-05-07T21:05:17;3.20;;;2.20;;
48873;SDS011;66155;46.204;5.220;2023-05-07T21:10:18;2.60;;;2.10;;
48873;SDS011;66155;46.204;5.220;2023-05-07T21:15:18;4.30;;;1.92;;
48873;SDS011;66155;46.204;5.220;2023-05-07T21:20:19;2.60;;;1.83;;
48873;SDS011;66155;46.204;5.220;2023-05-07T21:25:19;3.30;;;2.00;;
48873;SDS011;66155;46.204;5.220;2023-05-07T21:30:20;2.05;;;1.80;;
48873;SDS011;66155;46.204;5.220;2023-05-07T21:35:20;4.75;;;1.85;;
48873;SDS011;66155;46.204;5.220;2023-05-07T21:40:21;2.15;;;1.75;;
48873;SDS011;66155;46.204;5.220;2023-05-07T21:45:21;2.23;;;1.90;;
48873;SDS011;66155;46.204;5.220;2023-05-07T21:50:21;2.67;;;1.90;;
48873;SDS011;66155;46.204;5.220;2023-05-07T21:55:22;2.80;;;1.85;;
48873;SDS011;66155;46.204;5.220;2023-05-07T22:00:22;3.22;;;1.63;;
48873;SDS011;66155;46.204;5.220;2023-05-07T22:05:23;1.80;;;1.33;;
48873;SDS011;66155;46.204;5.220;2023-05-07T22:10:23;2.73;;;1.80;;
48873;SDS011;66155;46.204;5.220;2023-05-07T22:15:24;3.83;;;1.90;;
48873;SDS011;66155;46.204;5.220;2023-05-07T22:20:24;4.50;;;1.98;;
48873;SDS011;66155;46.204;5.220;2023-05-07T22:25:25;3.58;;;2.38;;
48873;SDS011;66155;46.204;5.220;2023-05-07T22:30:26;3.83;;;1.80;;
48873;SDS011;66155;46.204;5.220;2023-05-07T22:35:26;2.65;;;2.20;;
48873;SDS011;66155;46.204;5.220;2023-05-07T22:40:27;3.88;;;2.13;;
48873;SDS011;66155;46.204;5.220;2023-05-07T22:45:28;2.47;;;1.90;;
48873;SDS011;66155;46.204;5.220;2023-05-07T22:50:28;2.20;;;1.90;;
48873;SDS011;66155;46.204;5.220;2023-05-07T22:55:29;3.13;;;1.90;;
48873;SDS011;66155;46.204;5.220;2023-05-07T23:00:29;2.60;;;1.90;;
48873;SDS011;66155;46.204;5.220;2023-05-07T23:05:30;1.83;;;1.70;;
48873;SDS011;66155;46.204;5.220;2023-05-07T23:10:30;3.83;;;2.10;;
48873;SDS011;66155;46.204;5.220;2023-05-07T23:15:33;3.50;;;2.17;;
48873;SDS011;66155;46.204;5.220;2023-05-07T23:20:34;3.05;;;2.13;;
48873;SDS011;66155;46.204;5.220;2023-05-07T23:25:34;4.75;;;2.28;;
48873;SDS011;66155;46.204;5.220;2023-05-07T23:30:35;2.42;;;2.00;;
48873;SDS011;66155;46.204;5.220;2023-05-07T23:35:35;5.23;;;2.10;;
48873;SDS011;66155;46.204;5.220;2023-05-07T23:40:36;5.10;;;2.10;;
48873;SDS011;66155;46.204;5.220;2023-05-07T23:45:39;2.22;;;2.03;;
48873;SDS011;66155;46.204;5.220;2023-05-07T23:50:39;2.90;;;2.30;;
48873;SDS011;66155;46.204;5.220;2023-05-07T23:55:40;4.27;;;2.10;;
